Time;durP1;ratioP1;P1;durP2;ratioP2;P2;SDS_P1;SDS_P2;PMS_P1;PMS_P2;Temp;Humidity;BMP_temperature;BMP_pressure;BME280_temperature;BME280_humidity;BME280_pressure;Samples;Min_cycle;Max_cycle;Signal;HPM_P1;HPM_P2
2022/01/19 00:00:48;;;;;;;;;;;;;;;;;;4223838;28;1284;-54
2022/01/19 00:03:08;;;;;;;;;;;;;;;;;;4223558;28;1279;-55
2022/01/19 00:05:28;;;;;;;;;;;;;;;;;;4223496;28;978;-55
2022/01/19 00:07:48;;;;;;;;;;;;;;;;;;4223435;28;1909;-55
2022/01/19 00:10:09;;;;;;;;;;;;;;;;;;4223458;28;1205;-55
2022/01/19 00:12:30;;;;;;;;;;;;;;;;;;4223536;28;1010;-55
2022/01/19 00:14:50;;;;;;;;;;;;;;;;;;4223809;28;1289;-55
2022/01/19 00:17:10;;;;;;;;;;;;;;;;;;4223368;28;1162;-56
2022/01/19 00:19:30;;;;;;;;;;;;;;;;;;4223227;28;1226;-55
2022/01/19 00:21:50;;;;;;;;;;;;;;;;;;4223472;28;1082;-55
2022/01/19 00:24:10;;;;;;;;;;;;;;;;;;4223629;28;1110;-55
2022/01/19 00:26:31;;;;;;;;;;;;;;;;;;4224158;28;1008;-54
2022/01/19 00:28:52;;;;;;;;;;;;;;;;;;4223539;28;938;-55
2022/01/19 00:31:13;;;;;;;;;;;;;;;;;;4223232;28;961;-55
2022/01/19 00:33:33;;;;;;;;;;;;;;;;;;4223084;28;1183;-55
2022/01/19 00:35:54;;;;;;;;;;;;;;;;;;4223609;28;1250;-54
2022/01/19 00:38:14;;;;;;;;;;;;;;;;;;4223155;28;978;-55
2022/01/19 00:40:34;;;;;;;;;;;;;;;;;;4222897;28;1015;-55
2022/01/19 00:42:55;;;;;;;;;;;;;;;;;;4207989;28;1081;-55
2022/01/19 00:45:15;;;;;;;;;;;;;;;;;;4222963;28;960;-55
2022/01/19 00:47:36;;;;;;;;;;;;;;;;;;4222802;28;1984;-54
2022/01/19 00:49:56;;;;;;;;;;;;;;;;;;4223158;28;1061;-54
2022/01/19 00:52:16;;;;;;;;;;;;;;;;;;4207683;28;1193;-55
2022/01/19 00:54:37;;;;;;;;;;;;;;;;;;4207707;28;1193;-55
2022/01/19 00:56:57;;;;;;;;;;;;;;;;;;4223006;28;1272;-54
2022/01/19 00:59:18;;;;;;;;;;;;;;;;;;4207858;28;1229;-55
2022/01/19 01:01:40;;;;;;;;;;;;;;;;;;4223025;28;982;-55
2022/01/19 01:04:00;;;;;;;;;;;;;;;;;;4223043;28;1144;-54
2022/01/19 01:06:21;;;;;;;;;;;;;;;;;;4222602;28;1230;-54
2022/01/19 01:08:41;;;;;;;;;;;;;;;;;;4222154;28;1988;-54
2022/01/19 01:11:02;;;;;;;;;;;;;;;;;;4207719;28;939;-55
2022/01/19 01:13:29;;;;;;;;;;;;;;;;;;4207582;28;1020;-55
2022/01/19 01:16:00;;;;;;;;;;;;;;;;;;4207450;28;1163;-55
2022/01/19 01:18:21;;;;;;;;;;;;;;;;;;4207450;28;1193;-55
2022/01/19 01:20:48;;;;;;;;;;;;;;;;;;4207331;28;1024;-55
2022/01/19 01:23:09;;;;;;;;;;;;;;;;;;4207447;28;1135;-55
2022/01/19 01:25:30;;;;;;;;;;;;;;;;;;4207417;28;1022;-55
2022/01/19 01:27:50;;;;;;;;;;;;;;;;;;4207478;28;1906;-55
2022/01/19 01:30:11;;;;;;;;;;;;;;;;;;4207258;28;1017;-55
2022/01/19 01:32:31;;;;;;;;;;;;;;;;;;4207127;28;962;-54
2022/01/19 01:34:52;;;;;;;;;;;;;;;;;;4206858;28;1055;-54
2022/01/19 01:37:12;;;;;;;;;;;;;;;;;;4207434;28;1123;-55
2022/01/19 01:39:33;;;;;;;;;;;;;;;;;;4207251;28;998;-54
2022/01/19 01:41:54;;;;;;;;;;;;;;;;;;4206833;28;942;-55
2022/01/19 01:44:19;;;;;;;;;;;;;;;;;;4207203;28;1210;-55
2022/01/19 01:46:47;;;;;;;;;;;;;;;;;;4222333;28;1020;-55
2022/01/19 01:49:16;;;;;;;;;;;;;;;;;;4206685;28;1902;-55
2022/01/19 01:54:23;;;;;;;;;;;;;;;;;;4178988;28;999;-55
2022/01/19 01:56:44;;;;;;;;;;;;;;;;;;4206389;28;1170;-55
2022/01/19 01:59:04;;;;;;;;;;;;;;;;;;4206312;28;935;-55
2022/01/19 02:01:43;;;;;;;;;;;;;;;;;;4222320;28;1025;-55
2022/01/19 02:04:07;;;;;;;;;;;;;;;;;;4202881;28;1213;-55
2022/01/19 02:06:39;;;;;;;;;;;;;;;;;;4205999;28;1326;-55
2022/01/19 02:09:20;;;;;;;;;;;;;;;;;;4217778;28;1979;-60
2022/01/19 02:22:31;;;;;;;;;;;;;;;;;;4186443;28;972;-56
2022/01/19 02:24:51;;;;;;;;;;;;;;;;;;4174850;28;2009;-56
2022/01/19 02:28:54;;;;;;;;;;;;;;;;;;4182636;28;988;-55
2022/01/19 02:30:39;;;;;;;;;;;;;;;;;;4205537;28;1811;-56
2022/01/19 02:40:57;;;;;;;;;;;;;;;;;;4204689;28;935;-56
2022/01/19 02:43:23;;;;;;;;;;;;;;;;;;4203323;28;1168;-56
2022/01/19 02:51:00;;;;;;;;;;;;;;;;;;4204803;28;981;-56
2022/01/19 02:53:21;;;;;;;;;;;;;;;;;;4203996;28;933;-56
2022/01/19 02:55:41;;;;;;;;;;;;;;;;;;4203633;28;1200;-56
2022/01/19 02:58:02;;;;;;;;;;;;;;;;;;4203414;28;1002;-56
2022/01/19 03:10:55;;;;;;;;;;;;;;;;;;4204765;28;946;-56
2022/01/19 03:13:16;;;;;;;;;;;;;;;;;;4203345;28;1195;-56
2022/01/19 03:15:36;;;;;;;;;;;;;;;;;;4203440;28;1311;-56
2022/01/19 03:17:59;;;;;;;;;;;;;;;;;;4203617;28;1002;-56
2022/01/19 03:20:19;;;;;;;;;;;;;;;;;;4204274;28;1370;-56
2022/01/19 03:22:47;;;;;;;;;;;;;;;;;;4189486;28;1215;-56
2022/01/19 03:25:11;;;;;;;;;;;;;;;;;;4189218;28;925;-56
2022/01/19 03:27:32;;;;;;;;;;;;;;;;;;4188227;28;1021;-55
2022/01/19 03:29:52;;;;;;;;;;;;;;;;;;4205187;28;2282;-56
2022/01/19 03:32:13;;;;;;;;;;;;;;;;;;4221021;28;1892;-54
2022/01/19 03:34:33;;;;;;;;;;;;;;;;;;4207624;28;1817;-55
2022/01/19 03:36:56;;;;;;;;;;;;;;;;;;4205698;28;1551;-55
2022/01/19 03:39:17;;;;;;;;;;;;;;;;;;4205691;28;1712;-55
2022/01/19 03:41:37;;;;;;;;;;;;;;;;;;4207885;28;1772;-55
2022/01/19 03:43:58;;;;;;;;;;;;;;;;;;4207229;28;1929;-56
2022/01/19 03:46:21;;;;;;;;;;;;;;;;;;4207867;28;1763;-55
2022/01/19 03:48:46;;;;;;;;;;;;;;;;;;4222727;28;1914;-55
2022/01/19 03:51:06;;;;;;;;;;;;;;;;;;4208224;28;1136;-56
2022/01/19 03:53:27;;;;;;;;;;;;;;;;;;4208669;28;1225;-56
2022/01/19 03:55:47;;;;;;;;;;;;;;;;;;4208368;28;1217;-56
2022/01/19 03:58:08;;;;;;;;;;;;;;;;;;4208228;28;1030;-56
2022/01/19 04:00:30;;;;;;;;;;;;;;;;;;4208318;28;939;-56
2022/01/19 04:02:52;;;;;;;;;;;;;;;;;;4208444;28;1205;-56
2022/01/19 04:05:19;;;;;;;;;;;;;;;;;;4223121;28;1040;-56
2022/01/19 04:07:40;;;;;;;;;;;;;;;;;;4208609;28;834;-56
2022/01/19 04:10:00;;;;;;;;;;;;;;;;;;4208015;28;1128;-56
2022/01/19 04:12:40;;;;;;;;;;;;;;;;;;4223221;28;1192;-56
2022/01/19 04:15:01;;;;;;;;;;;;;;;;;;4208083;28;1475;-56
2022/01/19 04:17:22;;;;;;;;;;;;;;;;;;4208007;28;974;-56
2022/01/19 04:19:44;;;;;;;;;;;;;;;;;;4216108;28;1268;-56
2022/01/19 04:22:08;;;;;;;;;;;;;;;;;;4222145;28;978;-56
2022/01/19 04:24:28;;;;;;;;;;;;;;;;;;4222999;28;1335;-56
2022/01/19 04:26:58;;;;;;;;;;;;;;;;;;4223556;28;1028;-56
2022/01/19 04:29:18;;;;;;;;;;;;;;;;;;4222125;28;1975;-56
2022/01/19 04:31:39;;;;;;;;;;;;;;;;;;4222193;28;1264;-56
2022/01/19 04:34:03;;;;;;;;;;;;;;;;;;4221985;28;1062;-56
2022/01/19 04:36:30;;;;;;;;;;;;;;;;;;4222487;28;1001;-56
2022/01/19 04:39:22;;;;;;;;;;;;;;;;;;4222012;28;1274;-56
2022/01/19 04:44:38;;;;;;;;;;;;;;;;;;4221345;28;1002;-56
2022/01/19 04:47:41;;;;;;;;;;;;;;;;;;4221884;28;926;-56
2022/01/19 05:03:31;;;;;;;;;;;;;;;;;;4223260;28;1190;-56
2022/01/19 05:06:00;;;;;;;;;;;;;;;;;;4222000;28;1194;-56
2022/01/19 05:08:38;;;;;;;;;;;;;;;;;;4222067;28;1913;-56
2022/01/19 05:13:38;;;;;;;;;;;;;;;;;;4221599;28;1026;-56
2022/01/19 05:15:59;;;;;;;;;;;;;;;;;;4221855;28;958;-56
2022/01/19 05:18:20;;;;;;;;;;;;;;;;;;4221452;28;1188;-56
2022/01/19 05:20:40;;;;;;;;;;;;;;;;;;4221534;28;1197;-56
2022/01/19 05:23:01;;;;;;;;;;;;;;;;;;4221641;28;1334;-56
2022/01/19 05:25:21;;;;;;;;;;;;;;;;;;4222632;28;967;-56
2022/01/19 05:27:52;;;;;;;;;;;;;;;;;;4221603;28;996;-56
2022/01/19 05:30:13;;;;;;;;;;;;;;;;;;4221195;28;1906;-56
2022/01/19 05:32:33;;;;;;;;;;;;;;;;;;4221614;28;1107;-56
2022/01/19 05:34:54;;;;;;;;;;;;;;;;;;4221690;28;1030;-56
2022/01/19 05:37:36;;;;;;;;;;;;;;;;;;4221478;28;1074;-56
2022/01/19 05:40:10;;;;;;;;;;;;;;;;;;4221280;28;980;-56
2022/01/19 05:42:39;;;;;;;;;;;;;;;;;;4221440;28;1001;-56
2022/01/19 05:44:59;;;;;;;;;;;;;;;;;;4221677;28;938;-56
2022/01/19 05:47:20;;;;;;;;;;;;;;;;;;4221539;28;1032;-56
2022/01/19 05:49:43;;;;;;;;;;;;;;;;;;4220950;28;1979;-56
2022/01/19 05:52:04;;;;;;;;;;;;;;;;;;4221052;28;935;-56
2022/01/19 05:54:24;;;;;;;;;;;;;;;;;;4220860;28;1170;-56
2022/01/19 05:56:45;;;;;;;;;;;;;;;;;;4221153;28;1300;-56
2022/01/19 05:59:11;;;;;;;;;;;;;;;;;;4221051;28;963;-56
2022/01/19 06:01:32;;;;;;;;;;;;;;;;;;4221236;28;1237;-56
2022/01/19 06:03:53;;;;;;;;;;;;;;;;;;4220878;28;1375;-56
2022/01/19 06:06:45;;;;;;;;;;;;;;;;;;4222827;28;892;-56
2022/01/19 06:09:35;;;;;;;;;;;;;;;;;;4221129;28;1988;-56
2022/01/19 06:11:56;;;;;;;;;;;;;;;;;;4220732;28;954;-56
2022/01/19 06:14:16;;;;;;;;;;;;;;;;;;4220921;28;946;-56
2022/01/19 06:16:36;;;;;;;;;;;;;;;;;;4221372;28;1519;-56
2022/01/19 06:18:57;;;;;;;;;;;;;;;;;;4221000;28;1081;-56
2022/01/19 06:21:17;;;;;;;;;;;;;;;;;;4220651;28;1270;-55
2022/01/19 06:23:42;;;;;;;;;;;;;;;;;;4220870;28;1013;-56
2022/01/19 06:26:04;;;;;;;;;;;;;;;;;;4221031;28;1098;-56
2022/01/19 06:28:26;;;;;;;;;;;;;;;;;;4220782;28;1193;-56
2022/01/19 06:30:46;;;;;;;;;;;;;;;;;;4220609;28;1023;-56
2022/01/19 06:33:07;;;;;;;;;;;;;;;;;;4220539;28;1150;-56
2022/01/19 06:35:28;;;;;;;;;;;;;;;;;;4220296;28;967;-56
2022/01/19 06:38:07;;;;;;;;;;;;;;;;;;4221727;28;1030;-56
2022/01/19 06:40:50;;;;;;;;;;;;;;;;;;4221641;28;1213;-56
2022/01/19 06:43:11;;;;;;;;;;;;;;;;;;4221746;28;1022;-56
2022/01/19 06:45:31;;;;;;;;;;;;;;;;;;4220385;28;1252;-56
2022/01/19 06:47:51;;;;;;;;;;;;;;;;;;4220668;28;1029;-56
2022/01/19 06:50:12;;;;;;;;;;;;;;;;;;4221501;28;1984;-57
2022/01/19 06:52:35;;;;;;;;;;;;;;;;;;4220712;28;1024;-57
2022/01/19 06:54:56;;;;;;;;;;;;;;;;;;4221648;28;1005;-56
2022/01/19 06:57:16;;;;;;;;;;;;;;;;;;4220898;28;965;-56
2022/01/19 06:59:55;;;;;;;;;;;;;;;;;;4221675;28;1155;-56
2022/01/19 07:02:24;;;;;;;;;;;;;;;;;;4220676;28;950;-56
2022/01/19 07:04:50;;;;;;;;;;;;;;;;;;4220118;28;1014;-56
2022/01/19 07:07:29;;;;;;;;;;;;;;;;;;4223940;28;860;-56
2022/01/19 07:09:55;;;;;;;;;;;;;;;;;;4223173;28;1905;-56
2022/01/19 07:12:16;;;;;;;;;;;;;;;;;;4223448;28;1505;-55
2022/01/19 07:14:36;;;;;;;;;;;;;;;;;;4223640;28;1036;-56
2022/01/19 07:16:57;;;;;;;;;;;;;;;;;;4224803;28;1482;-56
2022/01/19 07:19:17;;;;;;;;;;;;;;;;;;4223138;28;1065;-56
2022/01/19 07:21:40;;;;;;;;;;;;;;;;;;4223156;28;981;-56
2022/01/19 07:24:00;;;;;;;;;;;;;;;;;;4223006;28;1103;-56
2022/01/19 07:26:21;;;;;;;;;;;;;;;;;;4223181;28;1199;-56
2022/01/19 07:28:41;;;;;;;;;;;;;;;;;;4224044;28;1072;-57
2022/01/19 07:31:02;;;;;;;;;;;;;;;;;;4223125;28;1983;-56
2022/01/19 07:33:22;;;;;;;;;;;;;;;;;;4223479;28;1265;-56
2022/01/19 07:35:45;;;;;;;;;;;;;;;;;;4222987;28;1085;-56
2022/01/19 07:38:05;;;;;;;;;;;;;;;;;;4223153;28;868;-56
2022/01/19 07:40:26;;;;;;;;;;;;;;;;;;4223095;28;1148;-56
2022/01/19 07:42:46;;;;;;;;;;;;;;;;;;4222803;28;1111;-56
2022/01/19 07:45:30;;;;;;;;;;;;;;;;;;4223710;28;1391;-56
2022/01/19 07:48:28;;;;;;;;;;;;;;;;;;4222686;28;970;-56
2022/01/19 07:50:57;;;;;;;;;;;;;;;;;;4222818;28;1976;-56
2022/01/19 07:53:24;;;;;;;;;;;;;;;;;;4224104;28;1011;-56
2022/01/19 07:56:02;;;;;;;;;;;;;;;;;;4222842;28;1108;-56
2022/01/19 07:58:39;;;;;;;;;;;;;;;;;;4223820;28;1084;-56
2022/01/19 08:01:03;;;;;;;;;;;;;;;;;;4222362;28;1078;-56
2022/01/19 08:03:40;;;;;;;;;;;;;;;;;;4222928;28;1024;-56
2022/01/19 08:06:07;;;;;;;;;;;;;;;;;;4222488;28;1769;-56
2022/01/19 08:08:28;;;;;;;;;;;;;;;;;;4220267;28;1729;-55
2022/01/19 08:10:48;;;;;;;;;;;;;;;;;;4225563;28;1917;-56
2022/01/19 08:13:09;;;;;;;;;;;;;;;;;;4240588;27;1040;-56
2022/01/19 08:15:29;;;;;;;;;;;;;;;;;;4239611;28;949;-56
2022/01/19 08:17:51;;;;;;;;;;;;;;;;;;4239298;28;1077;-56
2022/01/19 08:20:12;;;;;;;;;;;;;;;;;;4240262;27;1287;-56
2022/01/19 08:22:33;;;;;;;;;;;;;;;;;;4225052;28;1044;-56
2022/01/19 08:25:13;;;;;;;;;;;;;;;;;;4240274;28;951;-56
2022/01/19 08:27:33;;;;;;;;;;;;;;;;;;4225161;28;1016;-56
2022/01/19 08:29:57;;;;;;;;;;;;;;;;;;4224739;28;1913;-57
2022/01/19 08:32:20;;;;;;;;;;;;;;;;;;4224972;28;952;-56
2022/01/19 08:35:01;;;;;;;;;;;;;;;;;;4240078;28;1142;-57
2022/01/19 08:37:41;;;;;;;;;;;;;;;;;;4240466;28;1054;-57
2022/01/19 08:40:02;;;;;;;;;;;;;;;;;;4225124;28;1032;-56
2022/01/19 08:42:23;;;;;;;;;;;;;;;;;;4224907;28;915;-57
2022/01/19 08:44:45;;;;;;;;;;;;;;;;;;4225020;28;1371;-57
2022/01/19 08:47:13;;;;;;;;;;;;;;;;;;4224997;28;1025;-57
2022/01/19 08:49:53;;;;;;;;;;;;;;;;;;4239574;28;1979;-56
2022/01/19 08:52:32;;;;;;;;;;;;;;;;;;4224979;28;944;-57
2022/01/19 08:55:05;;;;;;;;;;;;;;;;;;4224714;28;1024;-57
2022/01/19 08:57:26;;;;;;;;;;;;;;;;;;4239785;28;1068;-57
2022/01/19 08:59:46;;;;;;;;;;;;;;;;;;4239754;28;1143;-56
2022/01/19 09:02:07;;;;;;;;;;;;;;;;;;4239772;28;1191;-56
2022/01/19 09:04:27;;;;;;;;;;;;;;;;;;4239225;28;1005;-56
2022/01/19 09:06:48;;;;;;;;;;;;;;;;;;4239649;28;1168;-57
2022/01/19 09:09:08;;;;;;;;;;;;;;;;;;4240129;28;1039;-57
2022/01/19 09:11:29;;;;;;;;;;;;;;;;;;4239512;28;1984;-56
2022/01/19 09:13:50;;;;;;;;;;;;;;;;;;4239365;28;1137;-56
2022/01/19 09:16:10;;;;;;;;;;;;;;;;;;4239477;28;1293;-56
2022/01/19 09:18:31;;;;;;;;;;;;;;;;;;4239108;28;1152;-55
2022/01/19 09:20:51;;;;;;;;;;;;;;;;;;4239549;28;1214;-55
2022/01/19 09:23:11;;;;;;;;;;;;;;;;;;4239847;28;1286;-56
2022/01/19 09:25:32;;;;;;;;;;;;;;;;;;4239311;28;950;-54
2022/01/19 09:27:53;;;;;;;;;;;;;;;;;;4239477;28;1008;-55
2022/01/19 09:30:14;;;;;;;;;;;;;;;;;;4238715;28;1910;-55
2022/01/19 09:32:34;;;;;;;;;;;;;;;;;;4239194;28;980;-55
2022/01/19 09:35:04;;;;;;;;;;;;;;;;;;4239381;28;975;-55
2022/01/19 09:37:24;;;;;;;;;;;;;;;;;;4230842;28;2719;-55
2022/01/19 09:39:45;;;;;;;;;;;;;;;;;;4214603;28;947;-55
2022/01/19 09:42:05;;;;;;;;;;;;;;;;;;4213349;28;1674;-55
2022/01/19 09:44:25;;;;;;;;;;;;;;;;;;4205728;28;1109;-55
2022/01/19 09:46:45;;;;;;;;;;;;;;;;;;4205587;28;977;-55
2022/01/19 09:49:06;;;;;;;;;;;;;;;;;;4190568;28;959;-55
2022/01/19 09:51:27;;;;;;;;;;;;;;;;;;4190357;28;1905;-54
2022/01/19 09:53:47;;;;;;;;;;;;;;;;;;4205644;28;884;-55
2022/01/19 09:56:08;;;;;;;;;;;;;;;;;;4205575;28;1018;-55
2022/01/19 09:58:28;;;;;;;;;;;;;;;;;;4205498;28;1194;-55
2022/01/19 10:00:48;;;;;;;;;;;;;;;;;;4205304;28;1077;-55
2022/01/19 10:03:08;;;;;;;;;;;;;;;;;;4205405;28;931;-55
2022/01/19 10:05:29;;;;;;;;;;;;;;;;;;4205607;28;926;-55
2022/01/19 10:07:49;;;;;;;;;;;;;;;;;;4205590;28;971;-55
2022/01/19 10:10:11;;;;;;;;;;;;;;;;;;4204939;28;1910;-55
2022/01/19 10:17:47;;;;;;;;;;;;;;;;;;4205056;28;1010;-55
2022/01/19 10:20:07;;;;;;;;;;;;;;;;;;4205021;28;1069;-55
2022/01/19 10:22:29;;;;;;;;;;;;;;;;;;4205232;28;1011;-55
2022/01/19 10:24:50;;;;;;;;;;;;;;;;;;4205085;28;982;-55
2022/01/19 10:27:10;;;;;;;;;;;;;;;;;;4205321;28;841;-55
2022/01/19 10:29:31;;;;;;;;;;;;;;;;;;4205195;28;1147;-55
2022/01/19 10:31:52;;;;;;;;;;;;;;;;;;4204761;28;2012;-55
2022/01/19 10:34:12;;;;;;;;;;;;;;;;;;4205018;28;961;-55
2022/01/19 10:36:32;;;;;;;;;;;;;;;;;;4205240;28;1011;-55
2022/01/19 10:38:53;;;;;;;;;;;;;;;;;;4205025;28;1019;-55
2022/01/19 10:41:13;;;;;;;;;;;;;;;;;;4203559;28;1186;-55
2022/01/19 10:43:33;;;;;;;;;;;;;;;;;;4205210;28;1023;-55
2022/01/19 10:45:54;;;;;;;;;;;;;;;;;;4204813;28;957;-55
2022/01/19 10:48:14;;;;;;;;;;;;;;;;;;4204735;28;830;-55
2022/01/19 10:50:34;;;;;;;;;;;;;;;;;;4205175;28;1906;-55
2022/01/19 10:52:55;;;;;;;;;;;;;;;;;;4204818;28;1020;-55
2022/01/19 10:55:15;;;;;;;;;;;;;;;;;;4204858;28;962;-55
2022/01/19 10:57:36;;;;;;;;;;;;;;;;;;4205242;28;1246;-55
2022/01/19 10:59:56;;;;;;;;;;;;;;;;;;4204702;28;1374;-56
2022/01/19 11:02:16;;;;;;;;;;;;;;;;;;4204585;28;1075;-55
2022/01/19 11:04:37;;;;;;;;;;;;;;;;;;4204965;28;1030;-55
2022/01/19 11:06:58;;;;;;;;;;;;;;;;;;4205000;28;919;-55
2022/01/19 11:09:23;;;;;;;;;;;;;;;;;;4204922;28;841;-56
2022/01/19 11:11:44;;;;;;;;;;;;;;;;;;4204524;28;1906;-55
2022/01/19 11:14:05;;;;;;;;;;;;;;;;;;4189487;28;1119;-55
2022/01/19 11:16:27;;;;;;;;;;;;;;;;;;4204879;28;1112;-55
2022/01/19 11:18:48;;;;;;;;;;;;;;;;;;4204637;28;1151;-55
2022/01/19 11:21:08;;;;;;;;;;;;;;;;;;4204805;28;830;-55
2022/01/19 11:23:29;;;;;;;;;;;;;;;;;;4204534;28;947;-55
2022/01/19 11:25:50;;;;;;;;;;;;;;;;;;4204493;28;951;-55
2022/01/19 11:28:10;;;;;;;;;;;;;;;;;;4204813;28;958;-55
2022/01/19 11:30:31;;;;;;;;;;;;;;;;;;4204737;28;1175;-55
2022/01/19 11:32:51;;;;;;;;;;;;;;;;;;4204491;28;1479;-55
2022/01/19 11:35:12;;;;;;;;;;;;;;;;;;4204430;28;963;-54
2022/01/19 11:37:33;;;;;;;;;;;;;;;;;;4204369;28;1162;-55
2022/01/19 11:39:53;;;;;;;;;;;;;;;;;;4204892;28;1128;-54
2022/01/19 11:42:14;;;;;;;;;;;;;;;;;;4204203;28;1033;-55
2022/01/19 11:44:35;;;;;;;;;;;;;;;;;;4204469;28;991;-56
2022/01/19 11:46:56;;;;;;;;;;;;;;;;;;4204283;28;1403;-55
2022/01/19 11:49:16;;;;;;;;;;;;;;;;;;4207290;28;1472;-55
2022/01/19 11:51:38;;;;;;;;;;;;;;;;;;4220996;28;1976;-55
2022/01/19 11:53:58;;;;;;;;;;;;;;;;;;4223427;28;1274;-55
2022/01/19 11:56:18;;;;;;;;;;;;;;;;;;4224088;28;981;-56
2022/01/19 11:58:39;;;;;;;;;;;;;;;;;;4227733;28;1536;-56
2022/01/19 12:00:59;;;;;;;;;;;;;;;;;;4207274;28;1099;-57
2022/01/19 12:03:20;;;;;;;;;;;;;;;;;;4207095;28;1053;-56
2022/01/19 12:05:41;;;;;;;;;;;;;;;;;;4207108;28;1183;-56
2022/01/19 12:08:01;;;;;;;;;;;;;;;;;;4207162;28;937;-57
2022/01/19 12:10:22;;;;;;;;;;;;;;;;;;4207140;28;941;-56
2022/01/19 12:12:48;;;;;;;;;;;;;;;;;;4206634;28;2012;-56
2022/01/19 12:15:10;;;;;;;;;;;;;;;;;;4206907;28;1006;-57
2022/01/19 12:17:30;;;;;;;;;;;;;;;;;;4206638;28;1001;-56
2022/01/19 12:19:50;;;;;;;;;;;;;;;;;;4206690;28;1206;-57
2022/01/19 12:22:13;;;;;;;;;;;;;;;;;;4206860;28;921;-55
2022/01/19 12:24:33;;;;;;;;;;;;;;;;;;4212918;28;1673;-53
2022/01/19 12:26:53;;;;;;;;;;;;;;;;;;4223063;28;1063;-54
2022/01/19 12:29:14;;;;;;;;;;;;;;;;;;4223156;28;967;-53
2022/01/19 12:31:34;;;;;;;;;;;;;;;;;;4222936;28;1906;-52
2022/01/19 12:33:54;;;;;;;;;;;;;;;;;;4223330;28;1008;-53
2022/01/19 12:36:15;;;;;;;;;;;;;;;;;;4223768;28;1058;-53
2022/01/19 12:38:35;;;;;;;;;;;;;;;;;;4223145;28;1104;-53
2022/01/19 12:40:55;;;;;;;;;;;;;;;;;;4222412;28;1386;-53
2022/01/19 12:43:16;;;;;;;;;;;;;;;;;;4223065;28;950;-56
2022/01/19 12:45:36;;;;;;;;;;;;;;;;;;4223468;28;1122;-57
2022/01/19 12:47:56;;;;;;;;;;;;;;;;;;4222961;28;931;-57
2022/01/19 12:50:16;;;;;;;;;;;;;;;;;;4223345;28;978;-56
2022/01/19 12:52:37;;;;;;;;;;;;;;;;;;4220572;28;1906;-54
2022/01/19 12:54:57;;;;;;;;;;;;;;;;;;4206809;28;942;-55
2022/01/19 12:57:17;;;;;;;;;;;;;;;;;;4206234;28;959;-55
2022/01/19 12:59:38;;;;;;;;;;;;;;;;;;4215054;28;1361;-55
2022/01/19 13:01:59;;;;;;;;;;;;;;;;;;4222819;28;1019;-55
2022/01/19 13:04:20;;;;;;;;;;;;;;;;;;4220935;28;1817;-55
2022/01/19 13:06:43;;;;;;;;;;;;;;;;;;4222788;28;1096;-55
2022/01/19 13:09:08;;;;;;;;;;;;;;;;;;4223296;28;1145;-55
2022/01/19 13:11:34;;;;;;;;;;;;;;;;;;4222451;28;1906;-55
2022/01/19 13:13:56;;;;;;;;;;;;;;;;;;4222740;28;1630;-55
2022/01/19 13:16:17;;;;;;;;;;;;;;;;;;4220783;28;1768;-55
2022/01/19 13:18:37;;;;;;;;;;;;;;;;;;4222035;28;1472;-56
2022/01/19 13:20:57;;;;;;;;;;;;;;;;;;4222429;28;1123;-55
2022/01/19 13:23:18;;;;;;;;;;;;;;;;;;4222726;28;975;-55
2022/01/19 13:25:38;;;;;;;;;;;;;;;;;;4222740;28;1003;-56
2022/01/19 13:27:58;;;;;;;;;;;;;;;;;;4223496;27;1301;-55
2022/01/19 13:30:19;;;;;;;;;;;;;;;;;;4222868;28;945;-55
2022/01/19 13:32:39;;;;;;;;;;;;;;;;;;4222777;28;1979;-55
2022/01/19 13:35:01;;;;;;;;;;;;;;;;;;4222747;28;913;-55
2022/01/19 13:37:21;;;;;;;;;;;;;;;;;;4222844;28;1019;-55
2022/01/19 13:39:42;;;;;;;;;;;;;;;;;;4221729;28;2139;-55
2022/01/19 13:42:03;;;;;;;;;;;;;;;;;;4222674;28;1211;-55
2022/01/19 13:44:25;;;;;;;;;;;;;;;;;;4222561;28;1791;-55
2022/01/19 13:46:45;;;;;;;;;;;;;;;;;;4222322;28;1168;-54
2022/01/19 13:49:06;;;;;;;;;;;;;;;;;;4222375;28;1071;-55
2022/01/19 13:51:26;;;;;;;;;;;;;;;;;;4222625;28;1139;-55
2022/01/19 13:53:49;;;;;;;;;;;;;;;;;;4221637;28;1790;-54
2022/01/19 13:56:10;;;;;;;;;;;;;;;;;;4221599;28;1342;-56
2022/01/19 13:58:30;;;;;;;;;;;;;;;;;;4222528;28;1068;-56
2022/01/19 14:00:50;;;;;;;;;;;;;;;;;;4222283;28;925;-58
2022/01/19 14:03:11;;;;;;;;;;;;;;;;;;4221960;28;1136;-58
2022/01/19 14:05:31;;;;;;;;;;;;;;;;;;4222326;28;930;-58
2022/01/19 14:07:51;;;;;;;;;;;;;;;;;;4222429;28;1007;-58
2022/01/19 14:10:12;;;;;;;;;;;;;;;;;;4222143;28;1099;-58
2022/01/19 14:12:32;;;;;;;;;;;;;;;;;;4222037;28;1882;-58
2022/01/19 14:14:54;;;;;;;;;;;;;;;;;;4221634;28;1008;-59
2022/01/19 14:17:15;;;;;;;;;;;;;;;;;;4221032;28;2561;-58
2022/01/19 14:19:35;;;;;;;;;;;;;;;;;;4222016;28;1333;-59
2022/01/19 14:21:55;;;;;;;;;;;;;;;;;;4222051;28;950;-59
2022/01/19 14:24:15;;;;;;;;;;;;;;;;;;4221658;28;1011;-58
2022/01/19 14:26:35;;;;;;;;;;;;;;;;;;4221840;28;966;-58
2022/01/19 14:28:56;;;;;;;;;;;;;;;;;;4222027;28;1005;-59
2022/01/19 14:31:16;;;;;;;;;;;;;;;;;;4221680;28;1275;-58
2022/01/19 14:33:36;;;;;;;;;;;;;;;;;;4221448;28;1909;-59
2022/01/19 14:35:58;;;;;;;;;;;;;;;;;;4221473;28;993;-59
2022/01/19 14:38:19;;;;;;;;;;;;;;;;;;4221569;28;1107;-59
2022/01/19 14:40:39;;;;;;;;;;;;;;;;;;4221524;28;1028;-59
2022/01/19 14:43:00;;;;;;;;;;;;;;;;;;4221920;28;851;-59
2022/01/19 14:45:24;;;;;;;;;;;;;;;;;;4221839;28;1280;-59
2022/01/19 14:47:44;;;;;;;;;;;;;;;;;;4221886;28;1028;-59
2022/01/19 14:50:04;;;;;;;;;;;;;;;;;;4221693;28;1102;-59
2022/01/19 14:52:24;;;;;;;;;;;;;;;;;;4221310;28;1913;-59
2022/01/19 14:54:45;;;;;;;;;;;;;;;;;;4221317;28;1075;-59
2022/01/19 14:57:06;;;;;;;;;;;;;;;;;;4221471;28;943;-59
2022/01/19 14:59:26;;;;;;;;;;;;;;;;;;4221176;28;962;-59
2022/01/19 15:01:47;;;;;;;;;;;;;;;;;;4221763;28;1150;-59
2022/01/19 15:04:07;;;;;;;;;;;;;;;;;;4221607;28;1059;-59
2022/01/19 15:06:27;;;;;;;;;;;;;;;;;;4216510;28;2369;-59
2022/01/19 15:08:48;;;;;;;;;;;;;;;;;;4218965;28;1452;-59
2022/01/19 15:11:09;;;;;;;;;;;;;;;;;;4234086;28;938;-59
2022/01/19 15:13:30;;;;;;;;;;;;;;;;;;4218857;28;3032;-56
2022/01/19 15:15:50;;;;;;;;;;;;;;;;;;4203807;28;996;-56
2022/01/19 15:18:11;;;;;;;;;;;;;;;;;;4206948;28;1673;-57
2022/01/19 15:20:32;;;;;;;;;;;;;;;;;;4196457;28;1700;-56
2022/01/19 15:22:57;;;;;;;;;;;;;;;;;;4200016;28;1951;-56
2022/01/19 15:25:18;;;;;;;;;;;;;;;;;;4204168;28;1038;-56
2022/01/19 15:27:39;;;;;;;;;;;;;;;;;;4205284;28;1026;-57
2022/01/19 15:29:59;;;;;;;;;;;;;;;;;;4188255;28;1459;-56
2022/01/19 15:32:19;;;;;;;;;;;;;;;;;;4192591;28;1914;-56
2022/01/19 15:34:40;;;;;;;;;;;;;;;;;;4190313;28;1074;-56
2022/01/19 15:37:00;;;;;;;;;;;;;;;;;;4200578;28;1293;-56
2022/01/19 15:39:20;;;;;;;;;;;;;;;;;;4206977;28;1406;-56
2022/01/19 15:41:41;;;;;;;;;;;;;;;;;;4206901;28;996;-56
2022/01/19 15:44:01;;;;;;;;;;;;;;;;;;4206561;28;2375;-56
2022/01/19 15:46:22;;;;;;;;;;;;;;;;;;4206410;28;1053;-56
2022/01/19 15:48:43;;;;;;;;;;;;;;;;;;4207147;28;937;-56
2022/01/19 15:51:04;;;;;;;;;;;;;;;;;;4206184;28;1297;-56
2022/01/19 15:53:24;;;;;;;;;;;;;;;;;;4206485;28;1930;-56
2022/01/19 15:55:45;;;;;;;;;;;;;;;;;;4206760;28;1182;-56
2022/01/19 15:58:05;;;;;;;;;;;;;;;;;;4206690;28;1290;-56
2022/01/19 16:00:26;;;;;;;;;;;;;;;;;;4206690;28;1179;-56
2022/01/19 16:02:47;;;;;;;;;;;;;;;;;;4206804;28;1393;-56
2022/01/19 16:05:08;;;;;;;;;;;;;;;;;;4205505;28;1414;-57
2022/01/19 16:07:29;;;;;;;;;;;;;;;;;;4206020;28;1391;-56
2022/01/19 16:09:50;;;;;;;;;;;;;;;;;;4206007;28;978;-56
2022/01/19 16:12:10;;;;;;;;;;;;;;;;;;4206470;28;1204;-56
2022/01/19 16:14:30;;;;;;;;;;;;;;;;;;4206386;28;937;-56
2022/01/19 16:16:50;;;;;;;;;;;;;;;;;;4206618;28;1020;-54
2022/01/19 16:19:13;;;;;;;;;;;;;;;;;;4211636;28;1107;-55
2022/01/19 16:21:34;;;;;;;;;;;;;;;;;;4222165;28;1764;-54
2022/01/19 16:26:32;;;;;;;;;;;;;;;;;;4222131;28;1476;-54
2022/01/19 16:28:55;;;;;;;;;;;;;;;;;;4222983;28;1069;-55
2022/01/19 16:31:16;;;;;;;;;;;;;;;;;;4222749;28;1021;-54
2022/01/19 16:33:36;;;;;;;;;;;;;;;;;;4223177;28;1945;-54
2022/01/19 16:35:57;;;;;;;;;;;;;;;;;;4222981;28;1155;-54
2022/01/19 16:38:17;;;;;;;;;;;;;;;;;;4223128;28;1037;-54
2022/01/19 16:40:39;;;;;;;;;;;;;;;;;;4222925;28;1480;-54
2022/01/19 16:42:59;;;;;;;;;;;;;;;;;;4222606;28;1067;-54
2022/01/19 16:45:20;;;;;;;;;;;;;;;;;;4222768;28;1067;-54
2022/01/19 16:47:44;;;;;;;;;;;;;;;;;;4222633;28;934;-54
2022/01/19 16:50:07;;;;;;;;;;;;;;;;;;4222471;28;860;-53
2022/01/19 16:52:27;;;;;;;;;;;;;;;;;;4222529;28;1324;-54
2022/01/19 16:54:47;;;;;;;;;;;;;;;;;;4222321;28;1191;-54
2022/01/19 16:57:08;;;;;;;;;;;;;;;;;;4222829;28;957;-56
2022/01/19 16:59:28;;;;;;;;;;;;;;;;;;4222764;28;1106;-56
2022/01/19 17:01:49;;;;;;;;;;;;;;;;;;4222129;28;1428;-55
2022/01/19 17:04:09;;;;;;;;;;;;;;;;;;4222146;28;1659;-56
2022/01/19 17:06:29;;;;;;;;;;;;;;;;;;4226927;28;1408;-56
2022/01/19 17:08:51;;;;;;;;;;;;;;;;;;4221971;28;1077;-56
2022/01/19 17:17:36;;;;;;;;;;;;;;;;;;4204955;28;1566;-56
2022/01/19 17:19:58;;;;;;;;;;;;;;;;;;4205265;28;1083;-56
2022/01/19 17:22:22;;;;;;;;;;;;;;;;;;4218230;28;2812;-56
2022/01/19 17:24:44;;;;;;;;;;;;;;;;;;4221841;28;1477;-55
2022/01/19 17:27:04;;;;;;;;;;;;;;;;;;4215537;28;3006;-56
2022/01/19 17:29:25;;;;;;;;;;;;;;;;;;4206120;28;1127;-55
2022/01/19 17:35:01;;;;;;;;;;;;;;;;;;4222196;28;933;-56
2022/01/19 17:37:22;;;;;;;;;;;;;;;;;;4222119;28;1104;-56
2022/01/19 17:43:24;;;;;;;;;;;;;;;;;;4222165;28;921;-56
2022/01/19 17:45:51;;;;;;;;;;;;;;;;;;4217742;28;1734;-58
2022/01/19 17:48:22;;;;;;;;;;;;;;;;;;4221230;28;1685;-56
2022/01/19 17:50:54;;;;;;;;;;;;;;;;;;4218376;28;1770;-56
2022/01/19 17:53:16;;;;;;;;;;;;;;;;;;4222359;28;1906;-56